Time;durP1;ratioP1;P1;durP2;ratioP2;P2;SDS_P1;SDS_P2;PMS_P1;PMS_P2;Temp;Humidity;BMP_temperature;BMP_pressure;BME280_temperature;BME280_humidity;BME280_pressure;Samples;Min_cycle;Max_cycle;Signal;HPM_P1;HPM_P2
2022/07/17 00:00:06;;;;;;;11.65;3.05;;;;;;;;;;4987067;28;88893;-70
2022/07/17 00:02:33;;;;;;;2.80;1.80;;;;;;;;;;4985984;28;89479;-71
2022/07/17 00:04:59;;;;;;;3.05;2.05;;;;;;;;;;4993810;28;88768;-70
2022/07/17 00:07:26;;;;;;;4.22;2.50;;;;;;;;;;4992785;28;88810;-71
2022/07/17 00:09:53;;;;;;;4.30;1.80;;;;;;;;;;4991370;28;89035;-71
2022/07/17 00:12:20;;;;;;;8.40;2.53;;;;;;;;;;4993358;28;88062;-71
2022/07/17 00:14:46;;;;;;;8.73;2.63;;;;;;;;;;4994067;28;90273;-71
2022/07/17 00:17:14;;;;;;;4.30;2.10;;;;;;;;;;4988942;28;88235;-71
2022/07/17 00:19:41;;;;;;;5.07;2.28;;;;;;;;;;4992686;28;90492;-70
2022/07/17 00:22:07;;;;;;;4.00;2.00;;;;;;;;;;4986093;28;88994;-71
2022/07/17 00:24:33;;;;;;;4.20;1.73;;;;;;;;;;4987010;28;89815;-70
2022/07/17 00:27:00;;;;;;;5.05;2.08;;;;;;;;;;4990092;28;90250;-71
2022/07/17 00:29:26;;;;;;;3.70;1.80;;;;;;;;;;4990028;28;89155;-70
2022/07/17 00:31:53;;;;;;;2.58;1.75;;;;;;;;;;4990879;28;89745;-71
2022/07/17 00:34:19;;;;;;;4.20;1.85;;;;;;;;;;4988322;28;88689;-71
2022/07/17 00:36:47;;;;;;;4.53;2.05;;;;;;;;;;4990390;28;89431;-71
2022/07/17 00:39:13;;;;;;;5.82;2.10;;;;;;;;;;4990633;28;89781;-71
2022/07/17 00:41:39;;;;;;;6.45;1.92;;;;;;;;;;4989378;28;89322;-71
2022/07/17 00:44:07;;;;;;;4.90;1.88;;;;;;;;;;4994283;28;88743;-71
2022/07/17 00:46:33;;;;;;;5.65;1.85;;;;;;;;;;4988226;28;88639;-71
2022/07/17 00:49:01;;;;;;;3.90;1.85;;;;;;;;;;4989323;28;88824;-71
2022/07/17 00:51:27;;;;;;;2.55;1.90;;;;;;;;;;4982344;28;89960;-71
2022/07/17 00:53:55;;;;;;;6.95;2.70;;;;;;;;;;4990761;28;91180;-71
2022/07/17 00:56:22;;;;;;;3.58;1.90;;;;;;;;;;4994816;28;88085;-71
2022/07/17 00:58:50;;;;;;;2.80;1.90;;;;;;;;;;4988940;28;88930;-71
2022/07/17 01:01:16;;;;;;;11.15;2.50;;;;;;;;;;4991521;27;88689;-70
2022/07/17 01:03:43;;;;;;;5.07;2.22;;;;;;;;;;4986181;28;89437;-70
2022/07/17 01:06:09;;;;;;;6.50;2.70;;;;;;;;;;4991304;28;88813;-71
2022/07/17 01:08:36;;;;;;;4.00;2.35;;;;;;;;;;4990516;28;90063;-70
2022/07/17 01:11:03;;;;;;;4.00;2.65;;;;;;;;;;4987291;28;89780;-70
2022/07/17 01:13:30;;;;;;;6.10;2.80;;;;;;;;;;4989532;28;89033;-70
2022/07/17 01:15:57;;;;;;;8.45;3.22;;;;;;;;;;4989815;28;90382;-70
2022/07/17 01:18:23;;;;;;;8.90;3.30;;;;;;;;;;4992645;28;89288;-70
2022/07/17 01:20:50;;;;;;;8.18;3.45;;;;;;;;;;4987380;28;88769;-71
2022/07/17 01:23:18;;;;;;;6.05;3.60;;;;;;;;;;4988502;28;88896;-71
2022/07/17 01:25:45;;;;;;;6.35;3.25;;;;;;;;;;4990162;28;89288;-70
2022/07/17 01:28:12;;;;;;;10.38;3.70;;;;;;;;;;4984704;28;89647;-70
2022/07/17 01:30:44;;;;;;;3.78;3.40;;;;;;;;;;4991545;28;88553;-70
2022/07/17 01:33:11;;;;;;;5.53;3.13;;;;;;;;;;4990458;27;88758;-70
2022/07/17 01:35:37;;;;;;;7.90;3.70;;;;;;;;;;4988532;28;89459;-70
2022/07/17 01:38:04;;;;;;;8.48;3.58;;;;;;;;;;4989285;28;90174;-70
2022/07/17 01:40:30;;;;;;;3.42;3.10;;;;;;;;;;4993531;28;90841;-70
2022/07/17 01:42:56;;;;;;;3.90;2.63;;;;;;;;;;4988012;28;88778;-71
2022/07/17 01:45:23;;;;;;;8.27;3.30;;;;;;;;;;4992446;28;88564;-71
2022/07/17 01:47:49;;;;;;;5.18;2.80;;;;;;;;;;4985388;28;90157;-71
2022/07/17 01:50:16;;;;;;;6.90;3.10;;;;;;;;;;4988615;28;89209;-71
2022/07/17 01:52:43;;;;;;;5.55;2.90;;;;;;;;;;4986515;28;89823;-71
2022/07/17 01:55:11;;;;;;;11.35;3.17;;;;;;;;;;4982432;28;89791;-71
2022/07/17 01:57:37;;;;;;;8.60;3.35;;;;;;;;;;4988281;28;89393;-71
2022/07/17 02:00:06;;;;;;;5.78;3.10;;;;;;;;;;4987254;28;88615;-70
2022/07/17 02:02:33;;;;;;;7.40;3.75;;;;;;;;;;4991843;28;89161;-71
2022/07/17 02:04:59;;;;;;;5.25;3.70;;;;;;;;;;4987995;28;90344;-71
2022/07/17 02:07:25;;;;;;;7.43;3.53;;;;;;;;;;4990701;28;90285;-70
2022/07/17 02:09:52;;;;;;;6.18;3.03;;;;;;;;;;4988815;28;89753;-70
2022/07/17 02:12:18;;;;;;;9.52;3.08;;;;;;;;;;4993164;28;89330;-71
2022/07/17 02:14:45;;;;;;;7.85;3.88;;;;;;;;;;4988991;28;89464;-70
2022/07/17 02:17:11;;;;;;;5.70;3.45;;;;;;;;;;4991151;28;89482;-70
2022/07/17 02:19:37;;;;;;;6.90;3.42;;;;;;;;;;4986204;28;90064;-70
2022/07/17 02:22:04;;;;;;;12.80;3.53;;;;;;;;;;4995130;28;88144;-70
2022/07/17 02:24:30;;;;;;;12.27;3.63;;;;;;;;;;4989609;28;89063;-70
2022/07/17 02:26:57;;;;;;;10.77;3.38;;;;;;;;;;4990973;28;89535;-70
2022/07/17 02:29:24;;;;;;;6.93;4.22;;;;;;;;;;4993551;28;88961;-71
2022/07/17 02:31:50;;;;;;;7.22;4.03;;;;;;;;;;4992416;28;89443;-70
2022/07/17 02:34:17;;;;;;;9.85;4.35;;;;;;;;;;4988501;28;89563;-71
2022/07/17 02:36:43;;;;;;;11.32;3.45;;;;;;;;;;4991168;28;89522;-71
2022/07/17 02:39:09;;;;;;;8.70;4.00;;;;;;;;;;4986496;28;89791;-70
2022/07/17 02:41:36;;;;;;;6.03;3.92;;;;;;;;;;4993331;28;89772;-70
2022/07/17 02:44:02;;;;;;;5.97;4.20;;;;;;;;;;4993227;28;90023;-70
2022/07/17 02:46:30;;;;;;;6.97;3.97;;;;;;;;;;4991415;28;88180;-71
2022/07/17 02:48:56;;;;;;;7.63;4.00;;;;;;;;;;4991135;28;88203;-70
2022/07/17 02:51:23;;;;;;;5.47;3.50;;;;;;;;;;4991328;28;89754;-70
2022/07/17 02:53:49;;;;;;;9.52;3.78;;;;;;;;;;4990549;28;89805;-70
2022/07/17 02:56:15;;;;;;;5.63;3.80;;;;;;;;;;4989539;28;89739;-70
2022/07/17 02:58:42;;;;;;;9.80;3.58;;;;;;;;;;4989697;28;89297;-71
2022/07/17 03:01:08;;;;;;;7.00;3.80;;;;;;;;;;4990723;28;88994;-71
2022/07/17 03:03:34;;;;;;;4.65;3.70;;;;;;;;;;4989570;28;89381;-70
2022/07/17 03:06:01;;;;;;;7.20;3.90;;;;;;;;;;4991062;28;89792;-71
2022/07/17 03:08:27;;;;;;;6.40;3.20;;;;;;;;;;4992407;28;88453;-71
2022/07/17 03:10:54;;;;;;;9.40;3.90;;;;;;;;;;4988684;28;88201;-71
2022/07/17 03:13:20;;;;;;;10.00;4.03;;;;;;;;;;4990230;28;90859;-70
2022/07/17 03:15:47;;;;;;;8.02;4.30;;;;;;;;;;4989304;28;89525;-70
2022/07/17 03:18:13;;;;;;;5.22;3.70;;;;;;;;;;4983386;28;90197;-71
2022/07/17 03:20:39;;;;;;;7.85;4.30;;;;;;;;;;4994077;28;89991;-70
2022/07/17 03:23:06;;;;;;;5.47;3.83;;;;;;;;;;4989794;28;89341;-70
2022/07/17 03:25:33;;;;;;;6.65;4.25;;;;;;;;;;4987289;28;88616;-70
2022/07/17 03:27:59;;;;;;;6.00;4.32;;;;;;;;;;4993419;28;90156;-70
2022/07/17 03:30:26;;;;;;;9.82;4.07;;;;;;;;;;4991189;28;89555;-70
2022/07/17 03:32:52;;;;;;;4.35;3.95;;;;;;;;;;4985525;28;89850;-70
2022/07/17 03:35:18;;;;;;;6.63;4.28;;;;;;;;;;4987313;28;88720;-70
2022/07/17 03:37:45;;;;;;;5.30;3.65;;;;;;;;;;4993966;28;89151;-70
2022/07/17 03:40:11;;;;;;;12.40;5.15;;;;;;;;;;4987385;28;89578;-70
2022/07/17 03:42:38;;;;;;;6.95;4.10;;;;;;;;;;4990106;28;89508;-70
2022/07/17 03:45:04;;;;;;;9.52;3.63;;;;;;;;;;4992600;28;89401;-70
2022/07/17 03:47:31;;;;;;;5.10;3.70;;;;;;;;;;4987438;28;89278;-70
2022/07/17 03:49:57;;;;;;;6.22;3.67;;;;;;;;;;4992313;28;89508;-70
2022/07/17 03:52:24;;;;;;;5.03;3.63;;;;;;;;;;4988089;28;90373;-70
2022/07/17 03:54:50;;;;;;;4.85;3.70;;;;;;;;;;4993256;27;89213;-70
2022/07/17 03:57:16;;;;;;;8.40;3.72;;;;;;;;;;4989452;28;89360;-70
2022/07/17 03:59:43;;;;;;;7.38;3.50;;;;;;;;;;4988441;28;88517;-70
2022/07/17 04:02:09;;;;;;;7.72;3.55;;;;;;;;;;4987587;28;89155;-70
2022/07/17 04:04:35;;;;;;;7.82;3.42;;;;;;;;;;4987873;28;90363;-70
2022/07/17 04:07:02;;;;;;;6.88;3.72;;;;;;;;;;4991918;28;89741;-70
2022/07/17 04:09:28;;;;;;;13.65;3.55;;;;;;;;;;4987062;28;89452;-70
2022/07/17 04:11:54;;;;;;;10.23;2.95;;;;;;;;;;4991166;28;89773;-71
2022/07/17 04:14:21;;;;;;;8.32;3.58;;;;;;;;;;4983237;28;89507;-70
2022/07/17 04:16:47;;;;;;;13.18;3.63;;;;;;;;;;4989278;28;89580;-70
2022/07/17 04:19:14;;;;;;;4.70;3.05;;;;;;;;;;4989190;28;88676;-70
2022/07/17 04:21:40;;;;;;;6.57;3.42;;;;;;;;;;4989088;28;88855;-71
2022/07/17 04:24:07;;;;;;;4.85;3.40;;;;;;;;;;4990103;28;88578;-70
2022/07/17 04:26:33;;;;;;;7.85;3.25;;;;;;;;;;4983791;28;89209;-70
2022/07/17 04:29:01;;;;;;;7.20;3.28;;;;;;;;;;4990038;28;88859;-70
2022/07/17 04:31:28;;;;;;;6.55;3.70;;;;;;;;;;4990009;28;89929;-70
2022/07/17 04:33:55;;;;;;;6.03;2.90;;;;;;;;;;4986209;28;88920;-70
2022/07/17 04:36:21;;;;;;;8.38;3.13;;;;;;;;;;4984553;28;88710;-70
2022/07/17 04:38:48;;;;;;;6.05;3.10;;;;;;;;;;4990058;28;89648;-70
2022/07/17 04:41:14;;;;;;;7.15;2.92;;;;;;;;;;4988214;28;89506;-70
2022/07/17 04:43:40;;;;;;;4.68;2.92;;;;;;;;;;4989202;28;89450;-70
2022/07/17 04:46:07;;;;;;;9.32;3.40;;;;;;;;;;4986927;28;88991;-71
2022/07/17 04:48:33;;;;;;;6.63;2.70;;;;;;;;;;4987945;28;87882;-70
2022/07/17 04:51:01;;;;;;;11.95;3.42;;;;;;;;;;4990034;28;88185;-70
2022/07/17 04:53:28;;;;;;;11.30;2.90;;;;;;;;;;4991561;27;89425;-70
2022/07/17 04:55:55;;;;;;;5.13;3.10;;;;;;;;;;4985230;28;89601;-71
2022/07/17 04:58:21;;;;;;;5.25;3.33;;;;;;;;;;4987785;28;89430;-70
2022/07/17 05:00:48;;;;;;;2.95;2.53;;;;;;;;;;4987674;28;88990;-70
2022/07/17 05:03:14;;;;;;;4.93;2.78;;;;;;;;;;4991942;28;88067;-71
2022/07/17 05:05:40;;;;;;;29.30;4.35;;;;;;;;;;4984107;28;89827;-71
2022/07/17 05:08:07;;;;;;;4.63;3.10;;;;;;;;;;4988087;28;88552;-71
2022/07/17 05:10:33;;;;;;;6.30;3.42;;;;;;;;;;4987430;28;89747;-70
2022/07/17 05:13:00;;;;;;;5.00;3.05;;;;;;;;;;4985327;28;89493;-71
2022/07/17 05:15:26;;;;;;;7.85;2.92;;;;;;;;;;4988284;28;89540;-70
2022/07/17 05:17:52;;;;;;;8.70;2.83;;;;;;;;;;4981213;28;89000;-70
2022/07/17 05:20:19;;;;;;;5.68;3.10;;;;;;;;;;4989658;27;90534;-71
2022/07/17 05:22:45;;;;;;;9.80;2.85;;;;;;;;;;4989020;28;90276;-71
2022/07/17 05:25:11;;;;;;;4.60;2.83;;;;;;;;;;4986720;28;90536;-71
2022/07/17 05:27:38;;;;;;;7.05;2.75;;;;;;;;;;4988974;28;89595;-70
2022/07/17 05:30:04;;;;;;;8.18;3.17;;;;;;;;;;4985846;28;88498;-71
2022/07/17 05:32:31;;;;;;;8.23;3.75;;;;;;;;;;4986422;28;90620;-71
2022/07/17 05:34:57;;;;;;;8.00;3.05;;;;;;;;;;4985488;28;89611;-71
2022/07/17 05:37:23;;;;;;;9.57;3.00;;;;;;;;;;4994043;28;90180;-70
2022/07/17 05:39:50;;;;;;;13.88;2.92;;;;;;;;;;4984096;28;89790;-71
2022/07/17 05:42:16;;;;;;;8.40;2.80;;;;;;;;;;4989989;28;88970;-71
2022/07/17 05:44:43;;;;;;;9.45;2.65;;;;;;;;;;4988974;28;90858;-71
2022/07/17 05:47:09;;;;;;;9.45;3.55;;;;;;;;;;4987898;28;88113;-71
2022/07/17 05:49:35;;;;;;;17.50;3.28;;;;;;;;;;4989038;28;89052;-71
2022/07/17 05:52:02;;;;;;;5.75;3.00;;;;;;;;;;4995141;28;89163;-71
2022/07/17 05:54:28;;;;;;;5.93;2.47;;;;;;;;;;4996888;28;88026;-71
2022/07/17 05:56:55;;;;;;;8.73;3.17;;;;;;;;;;4993127;28;88733;-73
2022/07/17 05:59:21;;;;;;;6.35;2.80;;;;;;;;;;4994605;28;88819;-72
2022/07/17 06:01:47;;;;;;;5.50;2.83;;;;;;;;;;4992626;28;89444;-71
2022/07/17 06:04:14;;;;;;;3.08;2.72;;;;;;;;;;4982926;28;89846;-70
2022/07/17 06:06:40;;;;;;;4.03;2.60;;;;;;;;;;4983790;27;89784;-71
2022/07/17 06:09:07;;;;;;;5.68;2.00;;;;;;;;;;4980899;28;89197;-71
2022/07/17 06:11:33;;;;;;;12.18;2.17;;;;;;;;;;4981593;28;89769;-72
2022/07/17 06:14:03;;;;;;;6.13;2.33;;;;;;;;;;4981711;28;88526;-72
2022/07/17 06:16:29;;;;;;;4.75;2.25;;;;;;;;;;4986088;28;89740;-72
2022/07/17 06:18:56;;;;;;;5.57;2.70;;;;;;;;;;4997468;28;89116;-72
2022/07/17 06:21:22;;;;;;;7.53;2.65;;;;;;;;;;4983717;28;89704;-72
2022/07/17 06:23:49;;;;;;;5.82;2.63;;;;;;;;;;4995613;28;88068;-72
2022/07/17 06:26:16;;;;;;;4.82;2.03;;;;;;;;;;4985746;28;88898;-70
2022/07/17 06:28:42;;;;;;;6.10;2.30;;;;;;;;;;4995395;28;88838;-70
2022/07/17 06:31:09;;;;;;;5.78;1.88;;;;;;;;;;4983341;28;89005;-70
2022/07/17 06:33:37;;;;;;;9.98;2.63;;;;;;;;;;4990635;28;88947;-70
2022/07/17 06:36:03;;;;;;;8.10;2.13;;;;;;;;;;4987836;28;89379;-70
2022/07/17 06:38:29;;;;;;;4.68;2.22;;;;;;;;;;4996299;28;89957;-71
2022/07/17 06:40:56;;;;;;;9.52;2.30;;;;;;;;;;5000070;28;89129;-71
2022/07/17 06:43:22;;;;;;;13.75;2.10;;;;;;;;;;5010540;28;88439;-70
2022/07/17 06:45:51;;;;;;;4.78;2.28;;;;;;;;;;5004531;28;88199;-72
2022/07/17 06:48:18;;;;;;;7.90;2.47;;;;;;;;;;5001193;28;88494;-71
2022/07/17 06:50:44;;;;;;;3.60;1.92;;;;;;;;;;5004869;28;87481;-71
2022/07/17 06:53:10;;;;;;;5.78;2.00;;;;;;;;;;5017496;28;88156;-72
2022/07/17 06:55:37;;;;;;;4.00;1.75;;;;;;;;;;5011805;28;89742;-71
2022/07/17 06:58:04;;;;;;;8.05;2.10;;;;;;;;;;5006162;28;90485;-71
2022/07/17 07:00:31;;;;;;;5.53;2.30;;;;;;;;;;5003737;28;89638;-71
2022/07/17 07:02:57;;;;;;;5.63;2.00;;;;;;;;;;4997261;28;89594;-72
2022/07/17 07:05:24;;;;;;;3.53;1.50;;;;;;;;;;4995592;28;88588;-71
2022/07/17 07:07:50;;;;;;;7.60;2.08;;;;;;;;;;5004256;28;88719;-72
2022/07/17 07:10:16;;;;;;;5.85;1.88;;;;;;;;;;5006492;28;89640;-72
2022/07/17 07:12:43;;;;;;;9.23;2.22;;;;;;;;;;5006221;28;88005;-71
2022/07/17 07:15:09;;;;;;;5.30;1.52;;;;;;;;;;5010491;28;89591;-72
2022/07/17 07:17:38;;;;;;;9.63;2.03;;;;;;;;;;5002811;28;88355;-72
2022/07/17 07:20:05;;;;;;;5.82;1.83;;;;;;;;;;5001771;28;88124;-72
2022/07/17 07:22:32;;;;;;;3.60;1.80;;;;;;;;;;4988627;28;88935;-72
2022/07/17 07:24:58;;;;;;;8.70;2.15;;;;;;;;;;4998589;28;89057;-72
2022/07/17 07:27:25;;;;;;;3.10;1.48;;;;;;;;;;4998903;28;88672;-72
2022/07/17 07:29:51;;;;;;;2.88;1.40;;;;;;;;;;5008169;28;89907;-72
2022/07/17 07:32:17;;;;;;;4.50;1.80;;;;;;;;;;5012388;28;88062;-72
2022/07/17 07:34:44;;;;;;;3.03;1.50;;;;;;;;;;4999062;28;89077;-72
2022/07/17 07:37:11;;;;;;;3.80;1.50;;;;;;;;;;5000035;28;89325;-72
2022/07/17 07:39:37;;;;;;;4.60;1.50;;;;;;;;;;5012334;28;88783;-72
2022/07/17 07:42:04;;;;;;;2.75;1.33;;;;;;;;;;4989544;28;88926;-72
2022/07/17 07:44:31;;;;;;;4.95;1.48;;;;;;;;;;4993862;28;90459;-72
2022/07/17 07:46:58;;;;;;;4.30;1.42;;;;;;;;;;5002177;28;88899;-73
2022/07/17 07:49:24;;;;;;;4.35;1.77;;;;;;;;;;4996677;28;89163;-72
2022/07/17 07:51:51;;;;;;;4.50;1.73;;;;;;;;;;4994054;28;88143;-73
2022/07/17 07:54:28;;;;;;;7.05;1.65;;;;;;;;;;4982482;28;89604;-72
2022/07/17 07:56:54;;;;;;;7.75;1.50;;;;;;;;;;4988810;28;89529;-73
2022/07/17 07:59:21;;;;;;;3.15;1.40;;;;;;;;;;4997992;28;88052;-73
2022/07/17 08:01:48;;;;;;;8.68;1.83;;;;;;;;;;4983851;28;89583;-72
2022/07/17 08:04:15;;;;;;;4.53;1.52;;;;;;;;;;4991081;28;88704;-72
2022/07/17 08:06:42;;;;;;;4.07;1.67;;;;;;;;;;4990425;28;90020;-72
2022/07/17 08:09:08;;;;;;;5.80;1.75;;;;;;;;;;4991094;28;89551;-75
2022/07/17 08:11:34;;;;;;;5.13;1.95;;;;;;;;;;4991885;28;88790;-75
2022/07/17 08:14:01;;;;;;;4.32;1.50;;;;;;;;;;4994620;28;90345;-74
2022/07/17 08:16:39;;;;;;;4.05;1.85;;;;;;;;;;5005045;28;89437;-72
2022/07/17 08:19:08;;;;;;;3.90;1.40;;;;;;;;;;5000275;28;88164;-72
2022/07/17 08:21:36;;;;;;;4.97;1.67;;;;;;;;;;4983901;28;89921;-72
2022/07/17 08:24:04;;;;;;;2.53;1.15;;;;;;;;;;4989475;28;88841;-71
2022/07/17 08:26:30;;;;;;;6.53;1.90;;;;;;;;;;4979450;28;88730;-71
2022/07/17 08:28:58;;;;;;;2.45;1.20;;;;;;;;;;4983684;28;88686;-72
2022/07/17 08:31:25;;;;;;;3.90;1.60;;;;;;;;;;4987142;28;90250;-72
2022/07/17 08:33:52;;;;;;;4.57;1.75;;;;;;;;;;4977953;28;89398;-72
2022/07/17 08:36:20;;;;;;;8.57;1.70;;;;;;;;;;4977749;28;90253;-71
2022/07/17 08:38:48;;;;;;;5.72;1.77;;;;;;;;;;4981526;28;88474;-72
2022/07/17 08:41:16;;;;;;;4.00;1.65;;;;;;;;;;4994978;28;88567;-72
2022/07/17 08:43:48;;;;;;;4.88;1.83;;;;;;;;;;4988816;28;88836;-72
2022/07/17 08:46:19;;;;;;;4.90;1.73;;;;;;;;;;5005314;28;88160;-72
2022/07/17 08:48:47;;;;;;;4.88;1.10;;;;;;;;;;5016641;28;88841;-72
2022/07/17 08:51:16;;;;;;;5.28;1.45;;;;;;;;;;5015410;28;88881;-72
2022/07/17 08:53:45;;;;;;;9.40;1.63;;;;;;;;;;4987761;28;88609;-72
2022/07/17 08:56:16;;;;;;;3.53;1.20;;;;;;;;;;4994260;28;89535;-72
2022/07/17 08:58:45;;;;;;;5.53;1.30;;;;;;;;;;4996583;28;88348;-72
2022/07/17 09:01:13;;;;;;;5.40;1.67;;;;;;;;;;4997544;28;88881;-72
2022/07/17 09:03:43;;;;;;;4.32;1.63;;;;;;;;;;4986167;28;89508;-72
2022/07/17 09:06:18;;;;;;;4.47;1.58;;;;;;;;;;4986146;28;88038;-72
2022/07/17 09:08:46;;;;;;;3.15;1.50;;;;;;;;;;5014697;28;88470;-71
2022/07/17 09:11:13;;;;;;;4.65;1.75;;;;;;;;;;5015117;28;88686;-72
2022/07/17 09:13:46;;;;;;;8.05;1.83;;;;;;;;;;5001197;28;88500;-71
2022/07/17 09:16:14;;;;;;;4.28;1.70;;;;;;;;;;5002290;28;90420;-72
2022/07/17 09:18:44;;;;;;;3.47;1.60;;;;;;;;;;4988756;28;87788;-72
2022/07/17 09:21:21;;;;;;;6.07;2.05;;;;;;;;;;4990918;28;89592;-72
2022/07/17 09:23:59;;;;;;;4.50;1.40;;;;;;;;;;4992723;28;89314;-72
2022/07/17 09:26:28;;;;;;;4.00;1.50;;;;;;;;;;5002445;28;88863;-69
2022/07/17 09:28:56;;;;;;;4.43;1.75;;;;;;;;;;4992589;28;89843;-70
2022/07/17 09:31:30;;;;;;;1.70;1.15;;;;;;;;;;4988853;28;92352;-70
2022/07/17 09:33:57;;;;;;;3.88;1.33;;;;;;;;;;4988668;28;89137;-70
2022/07/17 09:36:24;;;;;;;4.57;1.40;;;;;;;;;;4993369;28;88817;-71
2022/07/17 09:38:54;;;;;;;3.13;1.40;;;;;;;;;;4985290;28;88717;-71
2022/07/17 09:41:22;;;;;;;5.65;1.33;;;;;;;;;;4987142;28;88046;-71
2022/07/17 09:43:57;;;;;;;4.47;1.73;;;;;;;;;;4987551;28;88650;-71
2022/07/17 09:46:24;;;;;;;2.70;1.60;;;;;;;;;;4982541;28;88323;-71
2022/07/17 09:48:57;;;;;;;5.13;1.55;;;;;;;;;;4981638;28;88554;-72
2022/07/17 09:51:24;;;;;;;3.25;1.70;;;;;;;;;;4983536;28;90232;-72
2022/07/17 09:53:53;;;;;;;4.30;1.70;;;;;;;;;;4984013;28;88841;-71
2022/07/17 09:56:21;;;;;;;4.03;1.92;;;;;;;;;;4985584;28;91503;-72
2022/07/17 09:58:53;;;;;;;3.80;1.50;;;;;;;;;;4990293;28;90258;-72
2022/07/17 10:01:25;;;;;;;3.20;1.75;;;;;;;;;;4995497;28;88583;-71
2022/07/17 10:03:54;;;;;;;3.40;1.58;;;;;;;;;;4981941;28;89564;-71
2022/07/17 10:06:23;;;;;;;3.85;1.33;;;;;;;;;;4983814;28;89392;-72
2022/07/17 10:08:51;;;;;;;7.20;1.48;;;;;;;;;;4986332;28;87393;-72
2022/07/17 10:11:19;;;;;;;2.72;1.42;;;;;;;;;;4980899;28;89616;-72
2022/07/17 10:13:47;;;;;;;3.03;1.60;;;;;;;;;;4983647;27;90069;-72
2022/07/17 10:16:14;;;;;;;4.32;1.40;;;;;;;;;;4987132;28;88814;-72
2022/07/17 10:18:44;;;;;;;7.05;1.67;;;;;;;;;;4982809;28;89567;-72
2022/07/17 10:21:11;;;;;;;4.00;1.50;;;;;;;;;;4985316;28;88768;-72
2022/07/17 10:23:38;;;;;;;8.52;2.00;;;;;;;;;;4982872;28;89744;-72
2022/07/17 10:26:11;;;;;;;3.28;1.45;;;;;;;;;;4988097;28;90256;-73
2022/07/17 10:28:42;;;;;;;4.05;1.75;;;;;;;;;;4988007;28;89560;-73
2022/07/17 10:31:09;;;;;;;5.65;1.80;;;;;;;;;;4986741;28;90100;-72
2022/07/17 10:33:36;;;;;;;3.72;1.70;;;;;;;;;;4985472;27;87803;-72
2022/07/17 10:36:03;;;;;;;4.60;2.38;;;;;;;;;;4981981;28;89027;-72
2022/07/17 10:38:40;;;;;;;4.25;1.95;;;;;;;;;;4984433;28;89888;-72
2022/07/17 10:41:06;;;;;;;8.18;1.77;;;;;;;;;;5008142;28;90695;-72
2022/07/17 10:43:43;;;;;;;3.85;1.58;;;;;;;;;;4998445;28;89863;-72
2022/07/17 10:46:09;;;;;;;3.80;1.77;;;;;;;;;;5002641;28;88082;-73
2022/07/17 10:48:39;;;;;;;4.88;1.80;;;;;;;;;;5000126;28;88764;-73
2022/07/17 10:51:06;;;;;;;4.07;1.67;;;;;;;;;;4983933;28;89367;-72
2022/07/17 10:53:35;;;;;;;6.90;2.13;;;;;;;;;;4993386;28;89055;-72
2022/07/17 10:56:06;;;;;;;2.42;1.77;;;;;;;;;;4993617;28;88215;-72
2022/07/17 10:58:37;;;;;;;3.78;1.70;;;;;;;;;;4994584;28;88577;-72
2022/07/17 11:01:05;;;;;;;4.85;1.50;;;;;;;;;;4997212;28;89382;-72
2022/07/17 11:03:51;;;;;;;3.95;2.05;;;;;;;;;;4997052;28;88791;-72
2022/07/17 11:06:20;;;;;;;4.68;1.73;;;;;;;;;;4993444;28;88983;-72
2022/07/17 11:08:51;;;;;;;2.72;1.50;;;;;;;;;;5012146;28;90068;-70
2022/07/17 11:11:18;;;;;;;7.60;1.95;;;;;;;;;;5002782;28;89357;-71
2022/07/17 11:13:53;;;;;;;7.97;2.00;;;;;;;;;;4985185;28;89659;-71
2022/07/17 11:16:29;;;;;;;6.70;2.10;;;;;;;;;;4992948;28;88792;-71
2022/07/17 11:18:56;;;;;;;3.13;1.60;;;;;;;;;;5000106;28;89305;-71
2022/07/17 11:21:22;;;;;;;3.63;1.75;;;;;;;;;;5007296;28;88760;-71
2022/07/17 11:23:51;;;;;;;3.63;2.20;;;;;;;;;;5007885;28;88446;-72
2022/07/17 11:26:20;;;;;;;4.68;2.13;;;;;;;;;;5005459;28;89644;-71
2022/07/17 11:28:47;;;;;;;3.95;1.88;;;;;;;;;;4992874;28;89367;-71
2022/07/17 11:31:21;;;;;;;3.58;1.52;;;;;;;;;;4994030;28;89890;-70
2022/07/17 11:33:55;;;;;;;5.57;2.10;;;;;;;;;;4991302;28;89558;-70
2022/07/17 11:36:25;;;;;;;4.68;1.98;;;;;;;;;;4989641;28;88522;-70
2022/07/17 11:38:53;;;;;;;3.10;1.80;;;;;;;;;;4988267;28;90186;-70
2022/07/17 11:41:20;;;;;;;1.90;1.48;;;;;;;;;;4990229;28;89149;-70
2022/07/17 11:43:47;;;;;;;3.05;1.50;;;;;;;;;;4988099;28;89154;-70
2022/07/17 11:46:14;;;;;;;3.88;1.98;;;;;;;;;;4991557;28;89018;-71
2022/07/17 11:48:42;;;;;;;2.70;1.88;;;;;;;;;;4996020;28;89125;-70
2022/07/17 11:51:08;;;;;;;2.28;1.60;;;;;;;;;;4996043;28;89794;-71
2022/07/17 11:53:36;;;;;;;3.10;1.45;;;;;;;;;;5002001;28;88305;-71
2022/07/17 11:56:03;;;;;;;2.17;1.70;;;;;;;;;;5014990;28;88814;-71
2022/07/17 11:58:39;;;;;;;2.13;1.42;;;;;;;;;;4993408;28;89639;-71
2022/07/17 12:01:06;;;;;;;3.58;1.75;;;;;;;;;;5012952;28;88218;-71
2022/07/17 12:03:32;;;;;;;6.75;2.45;;;;;;;;;;5018276;28;88605;-70
2022/07/17 12:05:59;;;;;;;3.22;1.80;;;;;;;;;;5017067;28;89238;-71
2022/07/17 12:08:25;;;;;;;3.88;2.15;;;;;;;;;;5015983;28;88100;-71
2022/07/17 12:11:05;;;;;;;5.63;2.35;;;;;;;;;;5020835;28;88039;-72
2022/07/17 12:13:37;;;;;;;3.10;1.98;;;;;;;;;;4999176;28;87635;-72
2022/07/17 12:16:17;;;;;;;3.63;1.83;;;;;;;;;;5001735;28;88445;-72
2022/07/17 12:18:53;;;;;;;2.80;2.20;;;;;;;;;;5003033;28;88377;-72
2022/07/17 12:21:20;;;;;;;5.70;2.10;;;;;;;;;;5009074;28;89644;-72
2022/07/17 12:23:55;;;;;;;6.57;2.00;;;;;;;;;;5017596;28;89486;-72
2022/07/17 12:26:21;;;;;;;3.85;1.90;;;;;;;;;;5016627;28;89231;-71
2022/07/17 12:28:48;;;;;;;3.28;1.80;;;;;;;;;;5009766;28;88109;-71
2022/07/17 12:31:14;;;;;;;4.18;1.98;;;;;;;;;;5017450;28;88877;-71
2022/07/17 12:33:41;;;;;;;2.97;1.60;;;;;;;;;;5019585;28;88914;-71
2022/07/17 12:36:07;;;;;;;6.22;1.92;;;;;;;;;;5010176;28;88546;-71
2022/07/17 12:38:34;;;;;;;2.10;1.60;;;;;;;;;;5017908;28;87970;-72
2022/07/17 12:41:00;;;;;;;2.17;1.98;;;;;;;;;;5016684;28;88922;-72
2022/07/17 12:43:28;;;;;;;4.65;2.17;;;;;;;;;;5009093;28;89523;-72
2022/07/17 12:45:54;;;;;;;2.72;2.00;;;;;;;;;;5016027;28;89737;-72
2022/07/17 12:48:31;;;;;;;6.45;1.92;;;;;;;;;;5008389;28;89760;-72
2022/07/17 12:50:59;;;;;;;4.65;1.90;;;;;;;;;;4998293;28;88506;-71
2022/07/17 12:53:27;;;;;;;2.30;2.10;;;;;;;;;;5020731;28;88674;-72
2022/07/17 12:55:53;;;;;;;3.08;2.30;;;;;;;;;;5015527;28;88819;-71
2022/07/17 12:58:19;;;;;;;3.20;2.30;;;;;;;;;;5009714;28;88930;-71
2022/07/17 13:00:46;;;;;;;2.45;2.15;;;;;;;;;;5016607;28;88134;-72
2022/07/17 13:03:12;;;;;;;3.30;1.95;;;;;;;;;;5015050;28;88773;-72
2022/07/17 13:05:39;;;;;;;6.55;2.15;;;;;;;;;;5011420;28;88792;-72
2022/07/17 13:08:09;;;;;;;2.83;2.20;;;;;;;;;;5003671;28;88129;-72
2022/07/17 13:10:36;;;;;;;3.85;3.03;;;;;;;;;;5012092;28;88669;-72
2022/07/17 13:13:04;;;;;;;3.88;2.58;;;;;;;;;;5013486;28;88123;-72
2022/07/17 13:15:30;;;;;;;2.67;2.47;;;;;;;;;;5003906;28;88509;-72
2022/07/17 13:17:57;;;;;;;3.40;2.55;;;;;;;;;;4992524;28;91306;-70
2022/07/17 13:20:23;;;;;;;2.80;2.47;;;;;;;;;;4993233;28;90444;-71
2022/07/17 13:22:51;;;;;;;2.10;2.00;;;;;;;;;;5006411;28;88411;-71
2022/07/17 13:25:20;;;;;;;3.03;2.45;;;;;;;;;;4999232;28;88887;-71
2022/07/17 13:27:48;;;;;;;11.43;2.80;;;;;;;;;;4988743;28;87820;-70
2022/07/17 13:30:15;;;;;;;4.65;2.88;;;;;;;;;;4997856;28;90475;-70
2022/07/17 13:32:41;;;;;;;5.00;3.00;;;;;;;;;;4987534;28;89675;-70
2022/07/17 13:35:08;;;;;;;2.78;2.58;;;;;;;;;;4989515;28;88881;-69
2022/07/17 13:37:34;;;;;;;2.88;2.67;;;;;;;;;;4994499;28;89823;-70
2022/07/17 13:40:00;;;;;;;4.88;2.60;;;;;;;;;;4984629;28;89518;-70
2022/07/17 13:42:27;;;;;;;3.50;2.28;;;;;;;;;;4985136;28;89976;-70
2022/07/17 13:44:53;;;;;;;7.05;2.22;;;;;;;;;;4986879;28;88666;-69
2022/07/17 13:47:20;;;;;;;3.72;2.40;;;;;;;;;;4987202;28;88735;-69
2022/07/17 13:49:48;;;;;;;2.67;2.47;;;;;;;;;;4981862;28;88520;-69
2022/07/17 13:52:14;;;;;;;2.80;2.38;;;;;;;;;;4986639;28;89075;-70
2022/07/17 13:54:40;;;;;;;2.38;2.17;;;;;;;;;;4983994;28;88468;-70
2022/07/17 13:57:07;;;;;;;4.35;2.28;;;;;;;;;;4988853;28;89897;-70
2022/07/17 13:59:33;;;;;;;2.95;2.50;;;;;;;;;;4994382;28;91078;-71
2022/07/17 14:01:59;;;;;;;6.50;2.60;;;;;;;;;;5003515;28;89731;-70
2022/07/17 14:04:26;;;;;;;4.55;2.80;;;;;;;;;;4986659;28;89903;-69
2022/07/17 14:06:52;;;;;;;4.32;2.72;;;;;;;;;;4989350;28;88371;-69
2022/07/17 14:09:19;;;;;;;7.25;2.83;;;;;;;;;;4991786;28;88619;-70
2022/07/17 14:11:45;;;;;;;2.95;2.75;;;;;;;;;;4989199;28;89045;-70
2022/07/17 14:14:13;;;;;;;4.18;2.63;;;;;;;;;;4997457;28;88137;-70
2022/07/17 14:16:39;;;;;;;4.07;2.90;;;;;;;;;;4987875;28;88976;-70
2022/07/17 14:19:06;;;;;;;3.20;2.50;;;;;;;;;;4985648;28;89879;-69
2022/07/17 14:21:34;;;;;;;3.30;3.10;;;;;;;;;;4995600;27;89852;-70
2022/07/17 14:24:01;;;;;;;3.40;3.10;;;;;;;;;;4990716;28;89726;-71
2022/07/17 14:26:27;;;;;;;4.68;2.88;;;;;;;;;;4991332;28;89019;-70
2022/07/17 14:28:54;;;;;;;4.20;3.30;;;;;;;;;;4991411;28;89760;-70
2022/07/17 14:31:21;;;;;;;3.88;3.47;;;;;;;;;;4987352;28;89130;-70
2022/07/17 14:33:48;;;;;;;5.70;3.70;;;;;;;;;;4982633;28;88545;-70
2022/07/17 14:36:14;;;;;;;5.97;4.00;;;;;;;;;;4988302;28;88893;-70
2022/07/17 14:38:41;;;;;;;5.20;4.70;;;;;;;;;;4985058;28;88888;-70
2022/07/17 14:41:08;;;;;;;7.15;4.82;;;;;;;;;;4989562;28;89313;-70
2022/07/17 14:43:35;;;;;;;6.88;4.38;;;;;;;;;;4988791;28;88496;-70